PWSweather.com
Personal Weather Stations
Station Observations
RIVERSBEND
Rivers Bend, Heathsville, VA 22473

Rivers BendHeathsville, VA 22473

Lat: 37.87, Lon: -76.39

Elevation: 45

Station Type: Oregon Scientific WMR968

High Low Average
Temperature 82.2°F27.9°C 62.2°F16.8°C 71.7°F22.1°C
Dew Point 28.6°F-1.9°C 16.5°F-8.6°C 24.3°F-4.3°C
Winds 2.0 mph 3.2 kmh Calm Calm 1.0 mph E1.6 kmh E
Wind Gusts 7.6 mph12.2 kmh -- 4.0 mph6.4 kmh
Humidity 25% 14% 17%
Pressure 30.53 in1033.9 mb 30.41 in1029.8 mb -
Precipitation 0.00 in0.0 mm - -
Hour Temp Dew Point Humidity Winds Wind Gusts Pressure Precip Precip Rate Daily Precip Total
12:01 AM 64.4°F18.0°C 15.8°F-9.0°C 15% Calm Calm -- 30.53 in1033.9 mb 0.00 in0.0 mm 0.00 in/hr0.0 mm/hr 0.00 in0.0 mm
12:11 AM 64.2°F17.9°C 17.1°F-8.3°C 16% Calm Calm 2.7 mph4.3 kmh 30.53 in1033.9 mb 0.00 in0.0 mm 0.00 in/hr0.0 mm/hr 0.00 in0.0 mm
12:21 AM 64.2°F17.9°C 17.1°F-8.3°C 16% Calm Calm -- 30.53 in1033.9 mb 0.00 in0.0 mm 0.00 in/hr0.0 mm/hr 0.00 in0.0 mm
12:31 AM 64.0°F17.8°C 16.9°F-8.4°C 16% Calm Calm -- 30.53 in1033.9 mb 0.00 in0.0 mm 0.00 in/hr0.0 mm/hr 0.00 in0.0 mm
12:41 AM 64.0°F17.8°C 16.9°F-8.4°C 16% Calm Calm -- 30.53 in1033.9 mb 0.00 in0.0 mm 0.00 in/hr0.0 mm/hr 0.00 in0.0 mm
12:51 AM 64.0°F17.8°C 16.9°F-8.4°C 16% Calm Calm -- 30.53 in1033.9 mb 0.00 in0.0 mm 0.00 in/hr0.0 mm/hr 0.00 in0.0 mm
01:01 AM 63.9°F17.7°C 16.9°F-8.4°C 16% Calm Calm -- 30.53 in1033.9 mb 0.00 in0.0 mm 0.00 in/hr0.0 mm/hr 0.00 in0.0 mm
01:11 AM 63.7°F17.6°C 16.7°F-8.5°C 16% Calm Calm -- 30.47 in1031.8 mb 0.00 in0.0 mm 0.00 in/hr0.0 mm/hr 0.00 in0.0 mm
01:21 AM 63.5°F17.5°C 16.5°F-8.6°C 16% Calm Calm -- 30.47 in1031.8 mb 0.00 in0.0 mm 0.00 in/hr0.0 mm/hr 0.00 in0.0 mm
01:31 AM 63.5°F17.5°C 16.5°F-8.6°C 16% Calm Calm -- 30.47 in1031.8 mb 0.00 in0.0 mm 0.00 in/hr0.0 mm/hr 0.00 in0.0 mm
01:41 AM 63.5°F17.5°C 16.5°F-8.6°C 16% Calm Calm 2.2 mph3.5 kmh 30.47 in1031.8 mb 0.00 in0.0 mm 0.00 in/hr0.0 mm/hr 0.00 in0.0 mm
01:51 AM 63.7°F17.6°C 16.7°F-8.5°C 16% Calm Calm 3.1 mph5.0 kmh 30.47 in1031.8 mb 0.00 in0.0 mm 0.00 in/hr0.0 mm/hr 0.00 in0.0 mm
02:01 AM 63.9°F17.7°C 16.9°F-8.4°C 16% Calm Calm 3.1 mph5.0 kmh 30.47 in1031.8 mb 0.00 in0.0 mm 0.00 in/hr0.0 mm/hr 0.00 in0.0 mm
02:11 AM 64.0°F17.8°C 16.9°F-8.4°C 16% Calm Calm 4.5 mph7.2 kmh 30.47 in1031.8 mb 0.00 in0.0 mm 0.00 in/hr0.0 mm/hr 0.00 in0.0 mm
02:21 AM 63.9°F17.7°C 16.9°F-8.4°C 16% 1.0 mph ENE1.6 kmh ENE 3.6 mph5.8 kmh 30.47 in1031.8 mb 0.00 in0.0 mm 0.00 in/hr0.0 mm/hr 0.00 in0.0 mm
02:31 AM 63.9°F17.7°C 16.9°F-8.4°C 16% 1.0 mph NE1.6 kmh NE 5.4 mph8.7 kmh 30.47 in1031.8 mb 0.00 in0.0 mm 0.00 in/hr0.0 mm/hr 0.00 in0.0 mm
02:41 AM 64.0°F17.8°C 16.9°F-8.4°C 16% 1.0 mph NNE1.6 kmh NNE 3.6 mph5.8 kmh 30.47 in1031.8 mb 0.00 in0.0 mm 0.00 in/hr0.0 mm/hr 0.00 in0.0 mm
02:51 AM 64.2°F17.9°C 19.8°F-6.8°C 18% 1.0 mph N1.6 kmh N 3.6 mph5.8 kmh 30.47 in1031.8 mb 0.00 in0.0 mm 0.00 in/hr0.0 mm/hr 0.00 in0.0 mm
03:02 AM 64.2°F17.9°C 19.8°F-6.8°C 18% 1.0 mph N1.6 kmh N 6.3 mph10.1 kmh 30.47 in1031.8 mb 0.00 in0.0 mm 0.00 in/hr0.0 mm/hr 0.00 in0.0 mm
03:12 AM 64.2°F17.9°C 19.8°F-6.8°C 18% 1.0 mph NNE1.6 kmh NNE 4.9 mph7.9 kmh 30.47 in1031.8 mb 0.00 in0.0 mm 0.00 in/hr0.0 mm/hr 0.00 in0.0 mm
03:22 AM 64.2°F17.9°C 19.8°F-6.8°C 18% 1.0 mph NE1.6 kmh NE 5.4 mph8.7 kmh 30.47 in1031.8 mb 0.00 in0.0 mm 0.00 in/hr0.0 mm/hr 0.00 in0.0 mm
03:32 AM 64.2°F17.9°C 19.8°F-6.8°C 18% 1.0 mph NE1.6 kmh NE 4.9 mph7.9 kmh 30.47 in1031.8 mb 0.00 in0.0 mm 0.00 in/hr0.0 mm/hr 0.00 in0.0 mm
03:42 AM 64.2°F17.9°C 19.8°F-6.8°C 18% 1.0 mph NNE1.6 kmh NNE 3.6 mph5.8 kmh 30.47 in1031.8 mb 0.00 in0.0 mm 0.00 in/hr0.0 mm/hr 0.00 in0.0 mm
03:52 AM 64.2°F17.9°C 19.8°F-6.8°C 18% 1.0 mph N1.6 kmh N 5.4 mph8.7 kmh 30.47 in1031.8 mb 0.00 in0.0 mm 0.00 in/hr0.0 mm/hr 0.00 in0.0 mm
04:02 AM 64.2°F17.9°C 19.8°F-6.8°C 18% 1.0 mph N1.6 kmh N 4.0 mph6.4 kmh 30.47 in1031.8 mb 0.00 in0.0 mm 0.00 in/hr0.0 mm/hr 0.00 in0.0 mm
04:12 AM 64.2°F17.9°C 19.8°F-6.8°C 18% Calm Calm 2.2 mph3.5 kmh 30.47 in1031.8 mb 0.00 in0.0 mm 0.00 in/hr0.0 mm/hr 0.00 in0.0 mm
04:22 AM 63.9°F17.7°C 19.6°F-6.9°C 18% Calm Calm 2.7 mph4.3 kmh 30.47 in1031.8 mb 0.00 in0.0 mm 0.00 in/hr0.0 mm/hr 0.00 in0.0 mm
04:32 AM 63.7°F17.6°C 19.4°F-7.0°C 18% Calm Calm 3.1 mph5.0 kmh 30.47 in1031.8 mb 0.00 in0.0 mm 0.00 in/hr0.0 mm/hr 0.00 in0.0 mm
04:42 AM 63.5°F17.5°C 19.2°F-7.1°C 18% Calm Calm 3.6 mph5.8 kmh 30.47 in1031.8 mb 0.00 in0.0 mm 0.00 in/hr0.0 mm/hr 0.00 in0.0 mm
04:52 AM 63.1°F17.3°C 19.0°F-7.2°C 18% Calm Calm 4.0 mph6.4 kmh 30.47 in1031.8 mb 0.00 in0.0 mm 0.00 in/hr0.0 mm/hr 0.00 in0.0 mm
05:02 AM 63.0°F17.2°C 18.9°F-7.3°C 18% Calm Calm 2.7 mph4.3 kmh 30.47 in1031.8 mb 0.00 in0.0 mm 0.00 in/hr0.0 mm/hr 0.00 in0.0 mm
05:12 AM 62.8°F17.1°C 18.7°F-7.4°C 18% Calm Calm 3.1 mph5.0 kmh 30.47 in1031.8 mb 0.00 in0.0 mm 0.00 in/hr0.0 mm/hr 0.00 in0.0 mm
05:22 AM 62.6°F17.0°C 18.5°F-7.5°C 18% Calm Calm 2.7 mph4.3 kmh 30.47 in1031.8 mb 0.00 in0.0 mm 0.00 in/hr0.0 mm/hr 0.00 in0.0 mm
05:32 AM 62.6°F17.0°C 18.5°F-7.5°C 18% Calm Calm 3.6 mph5.8 kmh 30.47 in1031.8 mb 0.00 in0.0 mm 0.00 in/hr0.0 mm/hr 0.00 in0.0 mm
05:42 AM 62.4°F16.9°C 21.9°F-5.6°C 21% Calm Calm 4.0 mph6.4 kmh 30.47 in1031.8 mb 0.00 in0.0 mm 0.00 in/hr0.0 mm/hr 0.00 in0.0 mm
05:52 AM 62.2°F16.8°C 21.7°F-5.7°C 21% Calm Calm 3.6 mph5.8 kmh 30.47 in1031.8 mb 0.00 in0.0 mm 0.00 in/hr0.0 mm/hr 0.00 in0.0 mm
06:03 AM 62.4°F16.9°C 21.9°F-5.6°C 21% Calm Calm 4.9 mph7.9 kmh 30.47 in1031.8 mb 0.00 in0.0 mm 0.00 in/hr0.0 mm/hr 0.00 in0.0 mm
06:13 AM 62.2°F16.8°C 25.0°F-3.9°C 24% 1.0 mph N1.6 kmh N 3.1 mph5.0 kmh 30.47 in1031.8 mb 0.00 in0.0 mm 0.00 in/hr0.0 mm/hr 0.00 in0.0 mm
06:23 AM 62.2°F16.8°C 25.0°F-3.9°C 24% 1.0 mph N1.6 kmh N 3.1 mph5.0 kmh 30.47 in1031.8 mb 0.00 in0.0 mm 0.00 in/hr0.0 mm/hr 0.00 in0.0 mm
06:33 AM 62.4°F16.9°C 25.2°F-3.8°C 24% 1.0 mph NNE1.6 kmh NNE 3.1 mph5.0 kmh 30.47 in1031.8 mb 0.00 in0.0 mm 0.00 in/hr0.0 mm/hr 0.00 in0.0 mm
06:43 AM 62.6°F17.0°C 25.3°F-3.7°C 24% 1.0 mph NE1.6 kmh NE 3.6 mph5.8 kmh 30.47 in1031.8 mb 0.00 in0.0 mm 0.00 in/hr0.0 mm/hr 0.00 in0.0 mm
06:53 AM 62.6°F17.0°C 25.3°F-3.7°C 24% Calm Calm 4.0 mph6.4 kmh 30.47 in1031.8 mb 0.00 in0.0 mm 0.00 in/hr0.0 mm/hr 0.00 in0.0 mm
07:03 AM 62.6°F17.0°C 25.3°F-3.7°C 24% 1.0 mph NE1.6 kmh NE 4.0 mph6.4 kmh 30.47 in1031.8 mb 0.00 in0.0 mm 0.00 in/hr0.0 mm/hr 0.00 in0.0 mm
07:13 AM 62.6°F17.0°C 25.3°F-3.7°C 24% Calm Calm 3.6 mph5.8 kmh 30.47 in1031.8 mb 0.00 in0.0 mm 0.00 in/hr0.0 mm/hr 0.00 in0.0 mm
07:23 AM 62.4°F16.9°C 26.1°F-3.3°C 25% Calm Calm 3.1 mph5.0 kmh 30.47 in1031.8 mb 0.00 in0.0 mm 0.00 in/hr0.0 mm/hr 0.00 in0.0 mm
07:33 AM 62.6°F17.0°C 25.3°F-3.7°C 24% Calm Calm 3.6 mph5.8 kmh 30.47 in1031.8 mb 0.00 in0.0 mm 0.00 in/hr0.0 mm/hr 0.00 in0.0 mm
07:43 AM 63.0°F17.2°C 25.7°F-3.5°C 24% Calm Calm 3.6 mph5.8 kmh 30.53 in1033.9 mb 0.00 in0.0 mm 0.00 in/hr0.0 mm/hr 0.00 in0.0 mm
07:53 AM 63.3°F17.4°C 25.9°F-3.4°C 24% 1.0 mph NE1.6 kmh NE 4.9 mph7.9 kmh 30.53 in1033.9 mb 0.00 in0.0 mm 0.00 in/hr0.0 mm/hr 0.00 in0.0 mm
08:03 AM 63.5°F17.5°C 26.1°F-3.3°C 24% Calm Calm 3.1 mph5.0 kmh 30.53 in1033.9 mb 0.00 in0.0 mm 0.00 in/hr0.0 mm/hr 0.00 in0.0 mm
08:13 AM 63.5°F17.5°C 26.1°F-3.3°C 24% Calm Calm 3.6 mph5.8 kmh 30.53 in1033.9 mb 0.00 in0.0 mm 0.00 in/hr0.0 mm/hr 0.00 in0.0 mm
08:23 AM 64.2°F17.9°C 26.6°F-3.0°C 24% Calm Calm 4.0 mph6.4 kmh 30.53 in1033.9 mb 0.00 in0.0 mm 0.00 in/hr0.0 mm/hr 0.00 in0.0 mm
08:33 AM 65.1°F18.4°C 26.4°F-3.1°C 23% 1.0 mph ENE1.6 kmh ENE 5.4 mph8.7 kmh 30.53 in1033.9 mb 0.00 in0.0 mm 0.00 in/hr0.0 mm/hr 0.00 in0.0 mm
08:43 AM 65.8°F18.8°C 27.0°F-2.8°C 23% 1.0 mph NE1.6 kmh NE 4.0 mph6.4 kmh 30.53 in1033.9 mb 0.00 in0.0 mm 0.00 in/hr0.0 mm/hr 0.00 in0.0 mm
08:53 AM 66.7°F19.3°C 26.6°F-3.0°C 22% 1.0 mph NE1.6 kmh NE 7.6 mph12.2 kmh 30.53 in1033.9 mb 0.00 in0.0 mm 0.00 in/hr0.0 mm/hr 0.00 in0.0 mm
09:03 AM 67.5°F19.7°C 25.0°F-3.9°C 20% 2.0 mph N3.2 kmh N 4.0 mph6.4 kmh 30.53 in1033.9 mb 0.00 in0.0 mm 0.00 in/hr0.0 mm/hr 0.00 in0.0 mm
09:13 AM 67.8°F19.9°C 25.3°F-3.7°C 20% 2.0 mph N3.2 kmh N 6.3 mph10.1 kmh 30.53 in1033.9 mb 0.00 in0.0 mm 0.00 in/hr0.0 mm/hr 0.00 in0.0 mm
09:23 AM 68.4°F20.2°C 25.7°F-3.5°C 20% 2.0 mph NNE3.2 kmh NNE 3.6 mph5.8 kmh 30.53 in1033.9 mb 0.00 in0.0 mm 0.00 in/hr0.0 mm/hr 0.00 in0.0 mm
09:33 AM 68.9°F20.5°C 22.3°F-5.4°C 17% 1.0 mph NE1.6 kmh NE 5.4 mph8.7 kmh 30.47 in1031.8 mb 0.00 in0.0 mm 0.00 in/hr0.0 mm/hr 0.00 in0.0 mm
09:43 AM 69.4°F20.8°C 22.8°F-5.1°C 17% 2.0 mph NE3.2 kmh NE 6.3 mph10.1 kmh 30.53 in1033.9 mb 0.00 in0.0 mm 0.00 in/hr0.0 mm/hr 0.00 in0.0 mm
09:53 AM 70.0°F21.1°C 23.2°F-4.9°C 17% 2.0 mph NE3.2 kmh NE 6.3 mph10.1 kmh 30.53 in1033.9 mb 0.00 in0.0 mm 0.00 in/hr0.0 mm/hr 0.00 in0.0 mm
10:03 AM 70.7°F21.5°C 23.7°F-4.6°C 17% 2.0 mph NE3.2 kmh NE 5.8 mph9.3 kmh 30.53 in1033.9 mb 0.00 in0.0 mm 0.00 in/hr0.0 mm/hr 0.00 in0.0 mm
10:13 AM 71.6°F22.0°C 23.0°F-5.0°C 16% 2.0 mph NE3.2 kmh NE 5.8 mph9.3 kmh 30.53 in1033.9 mb 0.00 in0.0 mm 0.00 in/hr0.0 mm/hr 0.00 in0.0 mm
10:23 AM 71.8°F22.1°C 23.2°F-4.9°C 16% 1.0 mph ENE1.6 kmh ENE 4.0 mph6.4 kmh 30.53 in1033.9 mb 0.00 in0.0 mm 0.00 in/hr0.0 mm/hr 0.00 in0.0 mm
10:33 AM 73.2°F22.9°C 24.3°F-4.3°C 16% 1.0 mph E1.6 kmh E 3.6 mph5.8 kmh 30.53 in1033.9 mb 0.00 in0.0 mm 0.00 in/hr0.0 mm/hr 0.00 in0.0 mm
10:43 AM 74.1°F23.4°C 25.0°F-3.9°C 16% 1.0 mph E1.6 kmh E 4.9 mph7.9 kmh 30.53 in1033.9 mb 0.00 in0.0 mm 0.00 in/hr0.0 mm/hr 0.00 in0.0 mm
10:53 AM 74.8°F23.8°C 25.7°F-3.5°C 16% 1.0 mph E1.6 kmh E 5.8 mph9.3 kmh 30.53 in1033.9 mb 0.00 in0.0 mm 0.00 in/hr0.0 mm/hr 0.00 in0.0 mm
11:03 AM 75.7°F24.3°C 24.8°F-4.0°C 15% 1.0 mph E1.6 kmh E 3.1 mph5.0 kmh 30.53 in1033.9 mb 0.00 in0.0 mm 0.00 in/hr0.0 mm/hr 0.00 in0.0 mm
11:13 AM 76.3°F24.6°C 25.2°F-3.8°C 15% 1.0 mph E1.6 kmh E 2.7 mph4.3 kmh 30.53 in1033.9 mb 0.00 in0.0 mm 0.00 in/hr0.0 mm/hr 0.00 in0.0 mm
11:23 AM 76.3°F24.6°C 25.2°F-3.8°C 15% 1.0 mph ESE1.6 kmh ESE 5.4 mph8.7 kmh 30.53 in1033.9 mb 0.00 in0.0 mm 0.00 in/hr0.0 mm/hr 0.00 in0.0 mm
11:33 AM 77.0°F25.0°C 25.9°F-3.4°C 15% 1.0 mph SE1.6 kmh SE 3.6 mph5.8 kmh 30.53 in1033.9 mb 0.00 in0.0 mm 0.00 in/hr0.0 mm/hr 0.00 in0.0 mm
11:43 AM 77.5°F25.3°C 26.2°F-3.2°C 15% 1.0 mph SE1.6 kmh SE 3.6 mph5.8 kmh 30.47 in1031.8 mb 0.00 in0.0 mm 0.00 in/hr0.0 mm/hr 0.00 in0.0 mm
11:53 AM 78.3°F25.7°C 26.8°F-2.9°C 15% 1.0 mph SE1.6 kmh SE 6.3 mph10.1 kmh 30.47 in1031.8 mb 0.00 in0.0 mm 0.00 in/hr0.0 mm/hr 0.00 in0.0 mm
12:04 PM 78.4°F25.8°C 27.0°F-2.8°C 15% 1.0 mph SE1.6 kmh SE 3.6 mph5.8 kmh 30.47 in1031.8 mb 0.00 in0.0 mm 0.00 in/hr0.0 mm/hr 0.00 in0.0 mm
12:14 PM 78.6°F25.9°C 27.1°F-2.7°C 15% 1.0 mph E1.6 kmh E 6.3 mph10.1 kmh 30.53 in1033.9 mb 0.00 in0.0 mm 0.00 in/hr0.0 mm/hr 0.00 in0.0 mm
12:24 PM 78.8°F26.0°C 27.3°F-2.6°C 15% 1.0 mph E1.6 kmh E 3.1 mph5.0 kmh 30.53 in1033.9 mb 0.00 in0.0 mm 0.00 in/hr0.0 mm/hr 0.00 in0.0 mm
12:34 PM 78.8°F26.0°C 27.3°F-2.6°C 15% 1.0 mph E1.6 kmh E 3.6 mph5.8 kmh 30.53 in1033.9 mb 0.00 in0.0 mm 0.00 in/hr0.0 mm/hr 0.00 in0.0 mm
12:44 PM 78.8°F26.0°C 27.3°F-2.6°C 15% 1.0 mph E1.6 kmh E 4.0 mph6.4 kmh 30.47 in1031.8 mb 0.00 in0.0 mm 0.00 in/hr0.0 mm/hr 0.00 in0.0 mm
12:54 PM 79.2°F26.2°C 27.5°F-2.5°C 15% 1.0 mph SE1.6 kmh SE 3.6 mph5.8 kmh 30.47 in1031.8 mb 0.00 in0.0 mm 0.00 in/hr0.0 mm/hr 0.00 in0.0 mm
01:04 PM 79.9°F26.6°C 28.0°F-2.2°C 15% 2.0 mph SE3.2 kmh SE 3.1 mph5.0 kmh 30.47 in1031.8 mb 0.00 in0.0 mm 0.00 in/hr0.0 mm/hr 0.00 in0.0 mm
01:14 PM 80.4°F26.9°C 28.6°F-1.9°C 15% 2.0 mph SE3.2 kmh SE 3.6 mph5.8 kmh 30.47 in1031.8 mb 0.00 in0.0 mm 0.00 in/hr0.0 mm/hr 0.00 in0.0 mm
01:24 PM 80.6°F27.0°C 27.0°F-2.8°C 14% 2.0 mph SE3.2 kmh SE 3.6 mph5.8 kmh 30.47 in1031.8 mb 0.00 in0.0 mm 0.00 in/hr0.0 mm/hr 0.00 in0.0 mm
01:34 PM 81.0°F27.2°C 27.3°F-2.6°C 14% 2.0 mph ESE3.2 kmh ESE 3.6 mph5.8 kmh 30.47 in1031.8 mb 0.00 in0.0 mm 0.00 in/hr0.0 mm/hr 0.00 in0.0 mm
01:44 PM 81.1°F27.3°C 27.5°F-2.5°C 14% 1.0 mph SE1.6 kmh SE 4.0 mph6.4 kmh 30.47 in1031.8 mb 0.00 in0.0 mm 0.00 in/hr0.0 mm/hr 0.00 in0.0 mm
01:54 PM 81.1°F27.3°C 27.5°F-2.5°C 14% 1.0 mph SE1.6 kmh SE 3.1 mph5.0 kmh 30.47 in1031.8 mb 0.00 in0.0 mm 0.00 in/hr0.0 mm/hr 0.00 in0.0 mm
02:04 PM 82.0°F27.8°C 28.0°F-2.2°C 14% 1.0 mph E1.6 kmh E 4.9 mph7.9 kmh 30.47 in1031.8 mb 0.00 in0.0 mm 0.00 in/hr0.0 mm/hr 0.00 in0.0 mm
02:14 PM 82.2°F27.9°C 28.2°F-2.1°C 14% 1.0 mph E1.6 kmh E 3.6 mph5.8 kmh 30.47 in1031.8 mb 0.00 in0.0 mm 0.00 in/hr0.0 mm/hr 0.00 in0.0 mm
02:24 PM 81.1°F27.3°C 27.5°F-2.5°C 14% 2.0 mph E3.2 kmh E 5.8 mph9.3 kmh 30.47 in1031.8 mb 0.00 in0.0 mm 0.00 in/hr0.0 mm/hr 0.00 in0.0 mm
02:35 PM 80.8°F27.1°C 27.1°F-2.7°C 14% 1.0 mph ESE1.6 kmh ESE 3.6 mph5.8 kmh 30.47 in1031.8 mb 0.00 in0.0 mm 0.00 in/hr0.0 mm/hr 0.00 in0.0 mm
02:45 PM 80.6°F27.0°C 27.0°F-2.8°C 14% 1.0 mph ESE1.6 kmh ESE 3.6 mph5.8 kmh 30.47 in1031.8 mb 0.00 in0.0 mm 0.00 in/hr0.0 mm/hr 0.00 in0.0 mm
02:55 PM 80.4°F26.9°C 28.6°F-1.9°C 15% 1.0 mph ESE1.6 kmh ESE 3.6 mph5.8 kmh 30.47 in1031.8 mb 0.00 in0.0 mm 0.00 in/hr0.0 mm/hr 0.00 in0.0 mm
03:05 PM 81.3°F27.4°C 27.5°F-2.5°C 14% 1.0 mph SE1.6 kmh SE 4.0 mph6.4 kmh 30.47 in1031.8 mb 0.00 in0.0 mm 0.00 in/hr0.0 mm/hr 0.00 in0.0 mm
03:15 PM 80.8°F27.1°C 27.1°F-2.7°C 14% 2.0 mph SE3.2 kmh SE 4.0 mph6.4 kmh 30.47 in1031.8 mb 0.00 in0.0 mm 0.00 in/hr0.0 mm/hr 0.00 in0.0 mm
03:25 PM 80.4°F26.9°C 28.6°F-1.9°C 15% 1.0 mph SSE1.6 kmh SSE 2.7 mph4.3 kmh 30.47 in1031.8 mb 0.00 in0.0 mm 0.00 in/hr0.0 mm/hr 0.00 in0.0 mm
03:35 PM 81.1°F27.3°C 27.5°F-2.5°C 14% 1.0 mph SSE1.6 kmh SSE 3.1 mph5.0 kmh 30.47 in1031.8 mb 0.00 in0.0 mm 0.00 in/hr0.0 mm/hr 0.00 in0.0 mm
03:45 PM 81.0°F27.2°C 27.3°F-2.6°C 14% 1.0 mph SSE1.6 kmh SSE 3.6 mph5.8 kmh 30.47 in1031.8 mb 0.00 in0.0 mm 0.00 in/hr0.0 mm/hr 0.00 in0.0 mm
03:55 PM 81.1°F27.3°C 27.5°F-2.5°C 14% 2.0 mph SE3.2 kmh SE 4.0 mph6.4 kmh 30.47 in1031.8 mb 0.00 in0.0 mm 0.00 in/hr0.0 mm/hr 0.00 in0.0 mm
04:05 PM 81.0°F27.2°C 27.3°F-2.6°C 14% 2.0 mph SSE3.2 kmh SSE 4.0 mph6.4 kmh 30.47 in1031.8 mb 0.00 in0.0 mm 0.00 in/hr0.0 mm/hr 0.00 in0.0 mm
04:15 PM 80.6°F27.0°C 27.0°F-2.8°C 14% 2.0 mph SSE3.2 kmh SSE 4.0 mph6.4 kmh 30.47 in1031.8 mb 0.00 in0.0 mm 0.00 in/hr0.0 mm/hr 0.00 in0.0 mm
04:25 PM 80.2°F26.8°C 28.4°F-2.0°C 15% 2.0 mph S3.2 kmh S 4.0 mph6.4 kmh 30.41 in1029.8 mb 0.00 in0.0 mm 0.00 in/hr0.0 mm/hr 0.00 in0.0 mm
04:35 PM 80.2°F26.8°C 28.4°F-2.0°C 15% 2.0 mph SSE3.2 kmh SSE 4.0 mph6.4 kmh 30.41 in1029.8 mb 0.00 in0.0 mm 0.00 in/hr0.0 mm/hr 0.00 in0.0 mm
04:45 PM 80.4°F26.9°C 28.6°F-1.9°C 15% 2.0 mph SSE3.2 kmh SSE 3.1 mph5.0 kmh 30.41 in1029.8 mb 0.00 in0.0 mm 0.00 in/hr0.0 mm/hr 0.00 in0.0 mm
04:56 PM 80.4°F26.9°C 28.6°F-1.9°C 15% 2.0 mph S3.2 kmh S 4.0 mph6.4 kmh 30.41 in1029.8 mb 0.00 in0.0 mm 0.00 in/hr0.0 mm/hr 0.00 in0.0 mm
05:06 PM 80.6°F27.0°C 27.0°F-2.8°C 14% 2.0 mph S3.2 kmh S 4.0 mph6.4 kmh 30.41 in1029.8 mb 0.00 in0.0 mm 0.00 in/hr0.0 mm/hr 0.00 in0.0 mm
05:16 PM 80.4°F26.9°C 28.6°F-1.9°C 15% 2.0 mph SSE3.2 kmh SSE 4.0 mph6.4 kmh 30.41 in1029.8 mb 0.00 in0.0 mm 0.00 in/hr0.0 mm/hr 0.00 in0.0 mm
05:26 PM 80.4°F26.9°C 28.6°F-1.9°C 15% 1.0 mph SE1.6 kmh SE 3.6 mph5.8 kmh 30.41 in1029.8 mb 0.00 in0.0 mm 0.00 in/hr0.0 mm/hr 0.00 in0.0 mm
05:36 PM 80.1°F26.7°C 28.2°F-2.1°C 15% Calm Calm -- 30.41 in1029.8 mb 0.00 in0.0 mm 0.00 in/hr0.0 mm/hr 0.00 in0.0 mm
05:46 PM 79.9°F26.6°C 28.0°F-2.2°C 15% Calm Calm 3.1 mph5.0 kmh 30.41 in1029.8 mb 0.00 in0.0 mm 0.00 in/hr0.0 mm/hr 0.00 in0.0 mm
05:56 PM 79.7°F26.5°C 28.0°F-2.2°C 15% Calm Calm 2.2 mph3.5 kmh 30.41 in1029.8 mb 0.00 in0.0 mm 0.00 in/hr0.0 mm/hr 0.00 in0.0 mm
06:06 PM 79.3°F26.3°C 27.7°F-2.4°C 15% Calm Calm 2.7 mph4.3 kmh 30.41 in1029.8 mb 0.00 in0.0 mm 0.00 in/hr0.0 mm/hr 0.00 in0.0 mm
06:16 PM 79.2°F26.2°C 27.5°F-2.5°C 15% Calm Calm -- 30.41 in1029.8 mb 0.00 in0.0 mm 0.00 in/hr0.0 mm/hr 0.00 in0.0 mm
06:26 PM 78.8°F26.0°C 27.3°F-2.6°C 15% Calm Calm 2.2 mph3.5 kmh 30.41 in1029.8 mb 0.00 in0.0 mm 0.00 in/hr0.0 mm/hr 0.00 in0.0 mm
06:36 PM 77.4°F25.2°C 26.1°F-3.3°C 15% Calm Calm 2.7 mph4.3 kmh 30.41 in1029.8 mb 0.00 in0.0 mm 0.00 in/hr0.0 mm/hr 0.00 in0.0 mm
06:46 PM 77.2°F25.1°C 25.9°F-3.4°C 15% 1.0 mph SE1.6 kmh SE 2.7 mph4.3 kmh 30.41 in1029.8 mb 0.00 in0.0 mm 0.00 in/hr0.0 mm/hr 0.00 in0.0 mm
06:56 PM 77.4°F25.2°C 26.1°F-3.3°C 15% Calm Calm -- 30.41 in1029.8 mb 0.00 in0.0 mm 0.00 in/hr0.0 mm/hr 0.00 in0.0 mm
07:06 PM 78.1°F25.6°C 26.6°F-3.0°C 15% Calm Calm -- 30.41 in1029.8 mb 0.00 in0.0 mm 0.00 in/hr0.0 mm/hr 0.00 in0.0 mm
07:17 PM 78.3°F25.7°C 26.8°F-2.9°C 15% Calm Calm -- 30.41 in1029.8 mb 0.00 in0.0 mm 0.00 in/hr0.0 mm/hr 0.00 in0.0 mm
07:27 PM 78.1°F25.6°C 26.6°F-3.0°C 15% Calm Calm -- 30.41 in1029.8 mb 0.00 in0.0 mm 0.00 in/hr0.0 mm/hr 0.00 in0.0 mm
07:37 PM 77.5°F25.3°C 26.2°F-3.2°C 15% Calm Calm -- 30.41 in1029.8 mb 0.00 in0.0 mm 0.00 in/hr0.0 mm/hr 0.00 in0.0 mm
07:47 PM 77.0°F25.0°C 25.9°F-3.4°C 15% Calm Calm -- 30.47 in1031.8 mb 0.00 in0.0 mm 0.00 in/hr0.0 mm/hr 0.00 in0.0 mm
07:57 PM 76.5°F24.7°C 25.3°F-3.7°C 15% Calm Calm -- 30.47 in1031.8 mb 0.00 in0.0 mm 0.00 in/hr0.0 mm/hr 0.00 in0.0 mm
08:07 PM 75.9°F24.4°C 25.0°F-3.9°C 15% Calm Calm -- 30.47 in1031.8 mb 0.00 in0.0 mm 0.00 in/hr0.0 mm/hr 0.00 in0.0 mm
08:17 PM 75.6°F24.2°C 24.6°F-4.1°C 15% Calm Calm 3.6 mph5.8 kmh 30.47 in1031.8 mb 0.00 in0.0 mm 0.00 in/hr0.0 mm/hr 0.00 in0.0 mm
08:38 PM 75.2°F24.0°C 24.4°F-4.2°C 15% Calm Calm 3.6 mph5.8 kmh 30.47 in1031.8 mb 0.00 in0.0 mm 0.00 in/hr0.0 mm/hr 0.00 in0.0 mm
08:48 PM 74.7°F23.7°C 25.5°F-3.6°C 16% Calm Calm -- 30.47 in1031.8 mb 0.00 in0.0 mm 0.00 in/hr0.0 mm/hr 0.00 in0.0 mm
08:58 PM 74.5°F23.6°C 25.3°F-3.7°C 16% Calm Calm -- 30.47 in1031.8 mb 0.00 in0.0 mm 0.00 in/hr0.0 mm/hr 0.00 in0.0 mm
09:08 PM 73.9°F23.3°C 25.0°F-3.9°C 16% Calm Calm -- 30.47 in1031.8 mb 0.00 in0.0 mm 0.00 in/hr0.0 mm/hr 0.00 in0.0 mm
09:18 PM 73.2°F22.9°C 24.3°F-4.3°C 16% Calm Calm -- 30.47 in1031.8 mb 0.00 in0.0 mm 0.00 in/hr0.0 mm/hr 0.00 in0.0 mm
09:28 PM 72.5°F22.5°C 23.7°F-4.6°C 16% Calm Calm -- 30.47 in1031.8 mb 0.00 in0.0 mm 0.00 in/hr0.0 mm/hr 0.00 in0.0 mm
09:38 PM 72.5°F22.5°C 23.7°F-4.6°C 16% Calm Calm -- 30.47 in1031.8 mb 0.00 in0.0 mm 0.00 in/hr0.0 mm/hr 0.00 in0.0 mm
09:48 PM 72.3°F22.4°C 23.5°F-4.7°C 16% Calm Calm -- 30.47 in1031.8 mb 0.00 in0.0 mm 0.00 in/hr0.0 mm/hr 0.00 in0.0 mm
09:58 PM 72.0°F22.2°C 23.4°F-4.8°C 16% Calm Calm -- 30.47 in1031.8 mb 0.00 in0.0 mm 0.00 in/hr0.0 mm/hr 0.00 in0.0 mm
10:08 PM 71.4°F21.9°C 24.3°F-4.3°C 17% Calm Calm -- 30.47 in1031.8 mb 0.00 in0.0 mm 0.00 in/hr0.0 mm/hr 0.00 in0.0 mm
10:18 PM 71.6°F22.0°C 23.0°F-5.0°C 16% Calm Calm -- 30.47 in1031.8 mb 0.00 in0.0 mm 0.00 in/hr0.0 mm/hr 0.00 in0.0 mm
10:28 PM 71.4°F21.9°C 24.3°F-4.3°C 17% Calm Calm -- 30.47 in1031.8 mb 0.00 in0.0 mm 0.00 in/hr0.0 mm/hr 0.00 in0.0 mm
10:38 PM 71.1°F21.7°C 24.1°F-4.4°C 17% Calm Calm -- 30.47 in1031.8 mb 0.00 in0.0 mm 0.00 in/hr0.0 mm/hr 0.00 in0.0 mm
10:48 PM 70.9°F21.6°C 23.9°F-4.5°C 17% Calm Calm 2.7 mph4.3 kmh 30.47 in1031.8 mb 0.00 in0.0 mm 0.00 in/hr0.0 mm/hr 0.00 in0.0 mm
10:58 PM 70.7°F21.5°C 23.7°F-4.6°C 17% Calm Calm -- 30.47 in1031.8 mb 0.00 in0.0 mm 0.00 in/hr0.0 mm/hr 0.00 in0.0 mm
11:09 PM 70.5°F21.4°C 23.5°F-4.7°C 17% Calm Calm -- 30.47 in1031.8 mb 0.00 in0.0 mm 0.00 in/hr0.0 mm/hr 0.00 in0.0 mm
11:19 PM 70.3°F21.3°C 23.5°F-4.7°C 17% Calm Calm 3.1 mph5.0 kmh 30.47 in1031.8 mb 0.00 in0.0 mm 0.00 in/hr0.0 mm/hr 0.00 in0.0 mm
11:29 PM 70.3°F21.3°C 23.5°F-4.7°C 17% Calm Calm 3.1 mph5.0 kmh 30.47 in1031.8 mb 0.00 in0.0 mm 0.00 in/hr0.0 mm/hr 0.00 in0.0 mm
11:39 PM 70.2°F21.2°C 23.4°F-4.8°C 17% Calm Calm -- 30.47 in1031.8 mb 0.00 in0.0 mm 0.00 in/hr0.0 mm/hr 0.00 in0.0 mm
11:49 PM 70.2°F21.2°C 23.4°F-4.8°C 17% Calm Calm 2.2 mph3.5 kmh 30.47 in1031.8 mb 0.00 in0.0 mm 0.00 in/hr0.0 mm/hr 0.00 in0.0 mm
11:59 PM 70.2°F21.2°C 23.4°F-4.8°C 17% Calm Calm 3.6 mph5.8 kmh 30.47 in1031.8 mb 0.00 in0.0 mm 0.00 in/hr0.0 mm/hr 0.00 in0.0 mm